Time;durP1;ratioP1;P1;durP2;ratioP2;P2;SDS_P1;SDS_P2;PMS_P1;PMS_P2;Temp;Humidity;BMP_temperature;BMP_pressure;BME280_temperature;BME280_humidity;BME280_pressure;Samples;Min_cycle;Max_cycle;Signal;HPM_P1;HPM_P2
2023/09/21 00:00:34;;;;;;;6.15;2.10;;;20.40;66.30;;;;;;5033271;28;20029;-67
2023/09/21 00:02:59;;;;;;;7.10;2.20;;;20.30;66.20;;;;;;5029129;28;20018;-68
2023/09/21 00:05:31;;;;;;;8.75;2.45;;;20.30;66.20;;;;;;5027182;28;20072;-67
2023/09/21 00:07:58;;;;;;;5.18;2.10;;;20.30;66.10;;;;;;5029607;28;20348;-67
2023/09/21 00:10:31;;;;;;;4.65;2.20;;;20.30;66.10;;;;;;5027955;28;20052;-67
2023/09/21 00:13:01;;;;;;;6.78;2.50;;;20.30;66.00;;;;;;5009727;28;20426;-68
2023/09/21 00:15:29;;;;;;;5.50;2.10;;;20.30;66.00;;;;;;5037518;28;20351;-67
2023/09/21 00:17:55;;;;;;;5.43;1.98;;;20.30;66.10;;;;;;5038534;28;20053;-68
2023/09/21 00:20:23;;;;;;;4.72;2.00;;;20.30;66.10;;;;;;5028357;28;20013;-68
2023/09/21 00:22:51;;;;;;;6.57;2.20;;;20.30;66.00;;;;;;5029229;28;20041;-68
2023/09/21 00:25:17;;;;;;;6.75;2.45;;;20.20;65.90;;;;;;5029370;28;20063;-68
2023/09/21 00:27:44;;;;;;;5.35;2.17;;;20.30;66.00;;;;;;5042055;28;20359;-67
2023/09/21 00:30:19;;;;;;;5.65;2.33;;;20.30;66.00;;;;;;5033662;28;20029;-67
2023/09/21 00:32:48;;;;;;;5.75;2.50;;;20.20;66.00;;;;;;5026261;28;20030;-68
2023/09/21 00:35:16;;;;;;;4.75;1.88;;;20.20;66.00;;;;;;5044381;28;20047;-68
2023/09/21 00:37:42;;;;;;;6.25;2.35;;;20.20;65.90;;;;;;5026087;28;20346;-68
2023/09/21 00:40:17;;;;;;;5.05;2.30;;;20.20;65.90;;;;;;5030107;28;20336;-67
2023/09/21 00:42:47;;;;;;;5.63;1.90;;;20.20;65.80;;;;;;5025259;28;20057;-68
2023/09/21 00:45:14;;;;;;;6.53;2.03;;;20.20;65.90;;;;;;5027617;28;20040;-67
2023/09/21 00:47:50;;;;;;;4.80;2.13;;;20.20;66.70;;;;;;5027071;28;20430;-67
2023/09/21 00:50:21;;;;;;;5.38;1.83;;;20.20;66.10;;;;;;5035274;28;20036;-67
2023/09/21 00:52:50;;;;;;;4.70;1.90;;;20.20;66.10;;;;;;5027996;28;20527;-67
2023/09/21 00:55:21;;;;;;;4.20;1.80;;;20.20;66.10;;;;;;5028498;28;20151;-67
2023/09/21 00:57:48;;;;;;;5.28;1.92;;;20.20;66.00;;;;;;5031581;28;20348;-67
2023/09/21 01:00:16;;;;;;;5.38;2.00;;;20.20;65.80;;;;;;5027692;28;20033;-67
2023/09/21 01:02:43;;;;;;;9.30;2.42;;;20.10;65.60;;;;;;5038852;28;20037;-67
2023/09/21 01:05:11;;;;;;;5.97;2.38;;;20.20;65.50;;;;;;5039538;28;20036;-67
2023/09/21 01:07:37;;;;;;;5.25;1.98;;;20.20;65.30;;;;;;5025598;28;20041;-67
2023/09/21 01:10:07;;;;;;;5.35;1.88;;;20.20;65.10;;;;;;5026839;28;20025;-67
2023/09/21 01:12:35;;;;;;;5.22;2.15;;;20.10;64.90;;;;;;5027025;28;20045;-67
2023/09/21 01:15:11;;;;;;;5.85;2.10;;;20.20;64.90;;;;;;5027660;28;20030;-67
2023/09/21 01:17:41;;;;;;;5.78;2.28;;;20.20;64.80;;;;;;5036835;28;20401;-67
2023/09/21 01:20:15;;;;;;;5.67;2.10;;;20.20;64.80;;;;;;5024912;28;20025;-67
2023/09/21 01:22:44;;;;;;;6.68;2.58;;;20.20;64.70;;;;;;5020656;28;20268;-67
2023/09/21 01:25:14;;;;;;;4.85;2.03;;;20.20;64.70;;;;;;5025708;28;20044;-67
2023/09/21 01:27:40;;;;;;;6.53;2.25;;;20.20;64.70;;;;;;5027036;28;20465;-67
2023/09/21 01:30:08;;;;;;;8.80;2.00;;;20.20;64.60;;;;;;5030709;28;20037;-67
2023/09/21 01:32:34;;;;;;;5.15;2.25;;;20.20;64.60;;;;;;5033121;28;20315;-67
2023/09/21 01:35:00;;;;;;;5.13;1.92;;;20.20;64.70;;;;;;5029250;28;20775;-67
2023/09/21 01:37:29;;;;;;;5.88;1.90;;;20.10;64.70;;;;;;5031509;28;20379;-67
2023/09/21 01:39:55;;;;;;;5.85;2.15;;;20.20;64.70;;;;;;5035299;28;20037;-67
2023/09/21 01:42:23;;;;;;;5.05;2.20;;;20.20;64.70;;;;;;5031457;28;20025;-68
2023/09/21 01:44:49;;;;;;;5.60;2.20;;;20.20;64.70;;;;;;5028983;28;20051;-68
2023/09/21 01:47:17;;;;;;;5.20;2.08;;;20.20;64.70;;;;;;5031295;28;20522;-68
2023/09/21 01:49:44;;;;;;;6.22;2.47;;;20.20;64.70;;;;;;5031464;28;20122;-68
2023/09/21 01:52:10;;;;;;;6.68;2.08;;;20.20;64.60;;;;;;5031065;28;20055;-68
2023/09/21 01:54:36;;;;;;;4.65;1.90;;;20.20;64.60;;;;;;5031031;28;20112;-68
2023/09/21 01:57:07;;;;;;;4.78;1.98;;;20.20;64.60;;;;;;5031166;28;20100;-68
2023/09/21 01:59:33;;;;;;;4.60;1.92;;;20.20;64.60;;;;;;5038901;28;20120;-68
2023/09/21 02:01:59;;;;;;;6.00;2.00;;;20.20;64.60;;;;;;5033799;28;20124;-68
2023/09/21 02:04:25;;;;;;;6.13;2.30;;;20.20;64.70;;;;;;5030259;28;20033;-68
2023/09/21 02:06:50;;;;;;;5.97;2.40;;;20.20;64.60;;;;;;5030074;28;20045;-68
2023/09/21 02:09:16;;;;;;;4.80;1.88;;;20.20;64.60;;;;;;5036078;28;20485;-68
2023/09/21 02:11:44;;;;;;;6.00;2.20;;;20.20;64.50;;;;;;5030670;28;20127;-68
2023/09/21 02:14:11;;;;;;;7.93;2.05;;;20.20;64.40;;;;;;5028609;28;20476;-68
2023/09/21 02:16:38;;;;;;;5.78;2.00;;;20.20;64.40;;;;;;5041967;28;20025;-68
2023/09/21 02:19:03;;;;;;;4.75;1.63;;;20.20;64.40;;;;;;5041988;28;20072;-68
2023/09/21 02:21:29;;;;;;;7.05;2.30;;;20.20;64.30;;;;;;5027762;28;20376;-68
2023/09/21 02:23:55;;;;;;;6.85;2.40;;;20.20;64.30;;;;;;5029528;28;20025;-68
2023/09/21 02:26:21;;;;;;;5.80;1.90;;;20.20;64.30;;;;;;5028001;28;20017;-68
2023/09/21 02:28:48;;;;;;;4.97;2.10;;;20.20;64.30;;;;;;5030751;28;20362;-68
2023/09/21 02:31:15;;;;;;;5.68;2.15;;;20.20;65.00;;;;;;5045621;28;20026;-68
2023/09/21 02:33:42;;;;;;;5.25;1.85;;;20.20;64.30;;;;;;5029812;28;20465;-68
2023/09/21 02:36:19;;;;;;;5.53;2.20;;;20.20;64.20;;;;;;5042007;28;20056;-68
2023/09/21 02:38:45;;;;;;;5.53;2.20;;;20.20;64.20;;;;;;5037464;28;20409;-68
2023/09/21 02:41:11;;;;;;;5.85;1.90;;;20.20;64.20;;;;;;5028782;28;20022;-68
2023/09/21 02:43:40;;;;;;;5.80;2.10;;;20.20;64.20;;;;;;5012172;28;20084;-68
2023/09/21 02:46:06;;;;;;;4.15;1.70;;;20.20;64.20;;;;;;5029513;28;20115;-68
2023/09/21 02:48:33;;;;;;;6.13;2.00;;;20.20;64.20;;;;;;5034112;28;20068;-68
2023/09/21 02:51:03;;;;;;;5.47;1.90;;;20.20;64.20;;;;;;5021646;28;20090;-68
2023/09/21 02:53:29;;;;;;;4.00;1.58;;;20.20;64.10;;;;;;5025178;28;20053;-68
2023/09/21 02:55:55;;;;;;;6.10;1.75;;;20.20;64.10;;;;;;5041961;28;20034;-68
2023/09/21 02:58:26;;;;;;;4.75;2.00;;;20.20;64.10;;;;;;5027652;28;20101;-68
2023/09/21 03:00:53;;;;;;;6.18;1.98;;;20.30;64.10;;;;;;5022866;28;20040;-68
2023/09/21 03:03:21;;;;;;;5.28;1.75;;;20.30;64.00;;;;;;5030557;28;20032;-68
2023/09/21 03:05:48;;;;;;;4.20;1.77;;;20.30;63.90;;;;;;5043213;28;20043;-69
2023/09/21 03:08:15;;;;;;;5.10;1.77;;;20.30;63.80;;;;;;5018748;28;20048;-68
2023/09/21 03:10:47;;;;;;;4.78;1.83;;;20.30;63.80;;;;;;5028142;28;20118;-68
2023/09/21 03:13:18;;;;;;;5.90;1.98;;;20.40;63.80;;;;;;5029194;28;20026;-68
2023/09/21 03:15:45;;;;;;;5.28;1.90;;;20.40;63.80;;;;;;5042538;28;20118;-68
2023/09/21 03:18:11;;;;;;;4.53;1.73;;;20.40;63.70;;;;;;5028478;28;20171;-68
2023/09/21 03:20:37;;;;;;;4.35;1.65;;;20.40;63.60;;;;;;5030748;28;20121;-68
2023/09/21 03:23:05;;;;;;;6.45;1.90;;;20.40;63.50;;;;;;5029337;28;20039;-68
2023/09/21 03:25:51;;;;;;;6.22;1.77;;;20.40;63.40;;;;;;5028761;28;20469;-68
2023/09/21 03:28:18;;;;;;;4.38;1.70;;;20.40;63.40;;;;;;5030459;28;20066;-68
2023/09/21 03:30:46;;;;;;;4.30;1.58;;;20.50;63.40;;;;;;5032032;28;20025;-68
2023/09/21 03:33:18;;;;;;;4.90;1.80;;;20.50;63.30;;;;;;5034695;28;20087;-68
2023/09/21 03:35:44;;;;;;;3.88;1.67;;;20.50;63.30;;;;;;5036131;28;20454;-68
2023/09/21 03:38:12;;;;;;;3.17;1.50;;;20.50;63.30;;;;;;5032138;28;20022;-67
2023/09/21 03:40:38;;;;;;;4.45;2.00;;;20.50;63.20;;;;;;5028364;28;20030;-68
2023/09/21 03:43:06;;;;;;;6.45;2.28;;;20.50;63.20;;;;;;5032402;28;20022;-68
2023/09/21 03:45:34;;;;;;;4.80;1.80;;;20.50;63.20;;;;;;5038105;28;20139;-68
2023/09/21 03:48:05;;;;;;;4.45;1.83;;;20.50;63.20;;;;;;5036366;28;20022;-68
2023/09/21 03:50:31;;;;;;;4.30;1.70;;;20.50;63.10;;;;;;5032631;28;20442;-68
2023/09/21 03:52:59;;;;;;;3.20;1.63;;;20.50;63.30;;;;;;5034405;28;20076;-68
2023/09/21 03:55:27;;;;;;;6.53;2.33;;;20.50;63.30;;;;;;5029519;28;20041;-68
2023/09/21 03:57:53;;;;;;;5.05;1.98;;;20.50;63.30;;;;;;5023077;28;20087;-68
2023/09/21 04:00:31;;;;;;;3.05;1.42;;;20.50;63.20;;;;;;5036814;28;20021;-68
2023/09/21 04:02:59;;;;;;;6.85;1.92;;;20.50;63.20;;;;;;5044729;28;20014;-68
2023/09/21 04:05:29;;;;;;;5.32;2.05;;;20.50;63.20;;;;;;5038335;28;20053;-68
2023/09/21 04:07:55;;;;;;;5.47;1.88;;;20.50;63.00;;;;;;5033067;28;20139;-68
2023/09/21 04:10:20;;;;;;;4.90;1.70;;;20.50;63.10;;;;;;5029953;28;20477;-68
2023/09/21 04:12:47;;;;;;;5.32;2.17;;;20.50;63.10;;;;;;5031567;28;20351;-68
2023/09/21 04:15:13;;;;;;;4.10;1.90;;;20.50;63.10;;;;;;5029670;28;20083;-68
2023/09/21 04:17:42;;;;;;;4.32;1.83;;;20.50;63.10;;;;;;5039900;28;20091;-68
2023/09/21 04:21:00;;;;;;;6.03;2.38;;;20.50;63.10;;;;;;5030894;28;20083;-68
2023/09/21 04:23:28;;;;;;;5.20;1.80;;;20.50;63.10;;;;;;5031267;28;20085;-67
2023/09/21 04:25:55;;;;;;;5.40;1.80;;;20.50;63.20;;;;;;5032072;28;20025;-67
2023/09/21 04:28:22;;;;;;;5.82;2.17;;;20.50;63.20;;;;;;5048081;28;20022;-67
2023/09/21 04:30:48;;;;;;;5.43;1.88;;;20.50;63.20;;;;;;5029625;28;20113;-67
2023/09/21 04:33:14;;;;;;;5.40;2.00;;;20.50;63.30;;;;;;5031254;28;20111;-67
2023/09/21 04:35:39;;;;;;;6.38;2.15;;;20.50;63.40;;;;;;5031349;28;20061;-68
2023/09/21 04:38:05;;;;;;;4.78;2.00;;;20.50;63.50;;;;;;5042684;28;20087;-69
2023/09/21 04:40:31;;;;;;;5.50;1.98;;;20.50;63.50;;;;;;5030199;28;20053;-69
2023/09/21 04:42:57;;;;;;;6.10;2.22;;;20.50;63.40;;;;;;5014802;28;20048;-69
2023/09/21 04:45:26;;;;;;;4.15;1.73;;;20.50;63.40;;;;;;5031859;28;20051;-68
2023/09/21 04:48:00;;;;;;;5.80;2.00;;;20.50;63.40;;;;;;5046083;28;20043;-69
2023/09/21 04:50:26;;;;;;;5.22;2.15;;;20.50;63.40;;;;;;5030841;28;20071;-69
2023/09/21 04:52:52;;;;;;;4.85;2.33;;;20.50;63.40;;;;;;5030172;28;20033;-68
2023/09/21 04:55:18;;;;;;;7.20;2.40;;;20.50;63.50;;;;;;5030857;28;20028;-69
2023/09/21 04:57:45;;;;;;;4.65;1.88;;;20.50;63.60;;;;;;5030388;28;20385;-66
2023/09/21 05:00:13;;;;;;;6.82;2.00;;;20.50;63.80;;;;;;5031175;28;20105;-67
2023/09/21 05:02:40;;;;;;;5.32;2.28;;;20.40;63.80;;;;;;5014651;28;20083;-68
2023/09/21 05:05:06;;;;;;;5.72;2.35;;;20.40;63.90;;;;;;5029770;28;20065;-67
2023/09/21 05:07:35;;;;;;;5.60;2.00;;;20.40;63.90;;;;;;5026142;28;20439;-67
2023/09/21 05:10:03;;;;;;;5.75;2.08;;;20.40;63.90;;;;;;5027525;28;20055;-67
2023/09/21 05:12:29;;;;;;;5.32;2.13;;;20.40;63.90;;;;;;5029659;28;20130;-67
2023/09/21 05:14:54;;;;;;;5.55;2.30;;;20.40;63.90;;;;;;5030188;28;20112;-67
2023/09/21 05:17:21;;;;;;;5.28;1.75;;;20.40;64.10;;;;;;5032097;28;20057;-67
2023/09/21 05:19:46;;;;;;;4.68;1.83;;;20.40;64.30;;;;;;5028852;28;20076;-67
2023/09/21 05:22:12;;;;;;;6.55;2.00;;;20.40;64.30;;;;;;5031946;28;20022;-67
2023/09/21 05:24:39;;;;;;;4.97;1.88;;;20.40;64.60;;;;;;5030899;28;20033;-67
2023/09/21 05:27:06;;;;;;;4.32;1.88;;;20.40;64.80;;;;;;5033598;28;20036;-67
2023/09/21 05:29:32;;;;;;;5.35;1.90;;;20.40;64.80;;;;;;5035831;28;20057;-67
2023/09/21 05:31:58;;;;;;;6.30;2.25;;;20.40;64.80;;;;;;5037165;28;20045;-67
2023/09/21 05:34:27;;;;;;;5.35;1.90;;;20.40;64.80;;;;;;5036665;28;20374;-67
2023/09/21 05:36:54;;;;;;;4.90;1.63;;;20.40;64.80;;;;;;5037477;28;20211;-67
2023/09/21 05:39:20;;;;;;;4.82;1.98;;;20.40;64.80;;;;;;5025315;28;20032;-67
2023/09/21 05:41:46;;;;;;;5.80;2.22;;;20.40;64.80;;;;;;5030103;28;20014;-67
2023/09/21 05:44:13;;;;;;;4.88;2.00;;;20.40;64.90;;;;;;5036537;28;20036;-67
2023/09/21 05:46:39;;;;;;;6.55;2.20;;;20.40;64.90;;;;;;5030728;28;20033;-68
2023/09/21 05:49:09;;;;;;;5.40;2.30;;;20.40;64.90;;;;;;5027787;28;20446;-68
2023/09/21 05:51:39;;;;;;;5.50;2.10;;;20.40;64.90;;;;;;5032279;28;20070;-68
2023/09/21 05:54:05;;;;;;;4.93;2.27;;;20.40;65.10;;;;;;5037686;28;20040;-69
2023/09/21 05:56:32;;;;;;;5.63;2.20;;;20.40;65.20;;;;;;5032079;28;20026;-69
2023/09/21 05:59:00;;;;;;;6.22;2.10;;;20.40;65.10;;;;;;5032499;28;20021;-69
2023/09/21 06:01:31;;;;;;;6.65;2.22;;;20.40;65.10;;;;;;5034243;28;20040;-69
2023/09/21 06:03:59;;;;;;;5.25;1.98;;;20.40;65.20;;;;;;5030334;28;20111;-69
2023/09/21 06:06:28;;;;;;;5.78;2.30;;;20.40;65.20;;;;;;5047830;28;20045;-69
2023/09/21 06:08:57;;;;;;;4.88;2.20;;;20.40;65.20;;;;;;5029831;28;20029;-68
2023/09/21 06:11:25;;;;;;;6.85;2.35;;;20.40;65.30;;;;;;5033166;28;20105;-69
2023/09/21 06:13:53;;;;;;;5.45;1.92;;;20.40;65.90;;;;;;5033177;28;20018;-69
2023/09/21 06:16:20;;;;;;;3.90;1.80;;;20.40;65.30;;;;;;5030166;28;20041;-67
2023/09/21 06:18:48;;;;;;;4.22;1.88;;;20.40;65.40;;;;;;5035064;28;20029;-67
2023/09/21 06:21:14;;;;;;;8.07;2.53;;;20.40;65.50;;;;;;5035794;28;20025;-68
2023/09/21 06:23:41;;;;;;;5.55;2.20;;;20.40;65.50;;;;;;5037250;28;20021;-69
2023/09/21 06:26:07;;;;;;;5.97;2.15;;;20.40;65.50;;;;;;5037571;28;20025;-69
2023/09/21 06:28:33;;;;;;;5.32;2.45;;;20.40;65.50;;;;;;5036030;28;20415;-70
2023/09/21 06:31:04;;;;;;;6.55;2.25;;;20.40;65.50;;;;;;5040677;28;21747;-69
2023/09/21 06:33:32;;;;;;;;;;;20.40;65.60;;;;;;5033696;28;20500;-69
2023/09/21 06:35:58;;;;;;;6.05;2.25;;;20.40;65.60;;;;;;5035900;28;19963;-69
2023/09/21 06:38:24;;;;;;;4.70;1.88;;;20.40;65.70;;;;;;5017965;28;20057;-69
2023/09/21 06:40:49;;;;;;;4.85;1.98;;;20.40;65.70;;;;;;5029710;28;20112;-69
2023/09/21 06:47:03;;;;;;;5.57;1.85;;;20.50;65.80;;;;;;5030790;28;20054;-68
2023/09/21 06:49:29;;;;;;;6.32;2.08;;;20.40;66.00;;;;;;5032210;28;20021;-70
2023/09/21 06:51:56;;;;;;;6.15;2.22;;;20.40;66.30;;;;;;5029754;28;20049;-68
2023/09/21 06:54:26;;;;;;;4.95;1.77;;;20.40;66.60;;;;;;5032930;28;20030;-69
2023/09/21 06:56:52;;;;;;;5.35;2.10;;;20.40;66.80;;;;;;5032508;28;20132;-66
2023/09/21 06:59:18;;;;;;;6.35;2.22;;;20.40;67.00;;;;;;5033162;28;20030;-70
2023/09/21 07:01:43;;;;;;;10.38;2.50;;;20.30;67.30;;;;;;5033123;28;20120;-69
2023/09/21 07:04:09;;;;;;;6.10;2.33;;;20.30;67.50;;;;;;5033544;28;20026;-70
2023/09/21 07:06:35;;;;;;;4.38;1.90;;;20.30;68.50;;;;;;5031609;28;20045;-70
2023/09/21 07:09:04;;;;;;;6.57;2.72;;;20.30;68.20;;;;;;5039003;28;20075;-67
2023/09/21 07:11:32;;;;;;;4.57;2.03;;;20.30;68.50;;;;;;5031337;28;20119;-68
2023/09/21 07:13:57;;;;;;;6.97;2.60;;;20.20;69.10;;;;;;5036552;28;20037;-69
2023/09/21 07:16:23;;;;;;;7.53;2.60;;;20.20;69.40;;;;;;5032462;28;20037;-68
2023/09/21 07:18:49;;;;;;;6.30;2.47;;;20.20;69.80;;;;;;5018233;28;20036;-68
2023/09/21 07:21:15;;;;;;;5.32;2.30;;;20.20;70.20;;;;;;5033413;28;20021;-70
2023/09/21 07:23:41;;;;;;;7.22;2.80;;;20.20;70.70;;;;;;5034384;28;20029;-69
2023/09/21 07:26:08;;;;;;;6.20;2.55;;;20.20;71.10;;;;;;5028796;28;20056;-70
2023/09/21 07:28:34;;;;;;;5.72;2.63;;;20.20;71.30;;;;;;5034002;28;20188;-71
2023/09/21 07:31:01;;;;;;;6.47;2.40;;;20.10;71.30;;;;;;5039095;28;20470;-71
2023/09/21 07:33:30;;;;;;;6.90;2.63;;;20.10;71.30;;;;;;5033058;28;20447;-71
2023/09/21 07:35:56;;;;;;;6.78;2.50;;;20.10;71.60;;;;;;5033875;28;20091;-70
2023/09/21 07:38:23;;;;;;;6.05;2.50;;;20.10;71.80;;;;;;5029495;28;20013;-70
2023/09/21 07:40:49;;;;;;;5.88;2.08;;;20.10;72.00;;;;;;5031111;28;20425;-70
2023/09/21 07:43:16;;;;;;;6.45;2.75;;;20.00;72.10;;;;;;5029672;28;20447;-70
2023/09/21 07:45:45;;;;;;;6.03;2.35;;;20.10;72.50;;;;;;5027667;28;20473;-70
2023/09/21 07:48:11;;;;;;;6.45;2.75;;;20.00;72.60;;;;;;5033124;28;20057;-70
2023/09/21 07:50:37;;;;;;;8.57;2.67;;;20.00;72.80;;;;;;5030961;28;20061;-68
2023/09/21 07:53:04;;;;;;;5.40;2.65;;;20.00;73.10;;;;;;5034118;28;20066;-69
2023/09/21 07:55:30;;;;;;;6.95;2.92;;;20.00;73.20;;;;;;5049828;28;20034;-69
2023/09/21 07:57:56;;;;;;;5.50;2.40;;;20.00;73.50;;;;;;5046388;28;20032;-70
2023/09/21 08:00:22;;;;;;;6.30;2.72;;;19.90;73.70;;;;;;5034132;28;20022;-70
2023/09/21 08:02:49;;;;;;;5.65;2.20;;;19.90;73.80;;;;;;5030273;28;20029;-69
2023/09/21 08:05:15;;;;;;;7.78;3.00;;;20.00;73.90;;;;;;5033640;28;20060;-69
2023/09/21 08:07:41;;;;;;;5.28;2.25;;;20.00;74.00;;;;;;5031434;28;20065;-69
2023/09/21 08:10:10;;;;;;;7.15;2.35;;;19.90;74.10;;;;;;5026518;28;20039;-69
2023/09/21 08:12:38;;;;;;;5.88;2.58;;;19.90;74.30;;;;;;5043223;28;20025;-69
2023/09/21 08:15:11;;;;;;;6.32;2.67;;;19.90;74.50;;;;;;5031028;28;20029;-70
2023/09/21 08:17:37;;;;;;;5.82;2.60;;;19.90;74.80;;;;;;5004465;28;20025;-69
2023/09/21 08:20:05;;;;;;;7.35;2.78;;;20.00;75.10;;;;;;5034609;28;20029;-69
2023/09/21 08:22:31;;;;;;;6.45;2.63;;;19.90;75.40;;;;;;5035858;28;20033;-69
2023/09/21 08:24:57;;;;;;;6.93;3.00;;;19.90;75.50;;;;;;5033510;28;20038;-69
2023/09/21 08:27:23;;;;;;;6.45;2.60;;;19.90;75.70;;;;;;5032602;28;20052;-69
2023/09/21 08:29:49;;;;;;;6.60;3.35;;;19.90;75.80;;;;;;5044000;28;20099;-69
2023/09/21 08:32:15;;;;;;;7.90;2.42;;;19.90;76.00;;;;;;5035134;28;20033;-69
2023/09/21 08:34:44;;;;;;;7.15;2.45;;;19.90;76.10;;;;;;5033290;28;20033;-69
2023/09/21 08:37:10;;;;;;;6.70;2.50;;;19.80;76.10;;;;;;5029254;28;20335;-69
2023/09/21 08:39:36;;;;;;;7.32;2.90;;;19.90;76.10;;;;;;5030675;28;20021;-69
2023/09/21 08:42:03;;;;;;;8.02;3.03;;;19.90;76.10;;;;;;5033272;28;20521;-69
2023/09/21 08:44:32;;;;;;;5.72;2.80;;;19.90;76.20;;;;;;5046156;28;20462;-72
2023/09/21 08:46:59;;;;;;;8.27;3.40;;;19.80;76.30;;;;;;5032633;28;20087;-72
2023/09/21 08:49:26;;;;;;;8.48;3.20;;;19.80;76.30;;;;;;5033739;28;20033;-71
2023/09/21 08:51:53;;;;;;;5.07;2.42;;;19.80;76.50;;;;;;5028379;28;20054;-71
2023/09/21 08:54:23;;;;;;;7.13;2.50;;;19.80;76.60;;;;;;5032810;28;20344;-71
2023/09/21 08:56:55;;;;;;;7.10;2.90;;;19.80;76.80;;;;;;5032573;28;20017;-69
2023/09/21 08:59:21;;;;;;;8.63;2.70;;;19.80;76.80;;;;;;5033435;28;20087;-69
2023/09/21 09:01:48;;;;;;;6.40;2.80;;;19.80;76.90;;;;;;5040462;28;20029;-69
2023/09/21 09:04:14;;;;;;;9.40;3.05;;;19.80;77.00;;;;;;5020858;28;20034;-69
2023/09/21 09:06:40;;;;;;;7.20;3.03;;;19.80;77.10;;;;;;5030130;28;20045;-69
2023/09/21 09:09:07;;;;;;;8.38;3.53;;;19.70;77.40;;;;;;5033160;28;20033;-69
2023/09/21 09:12:22;;;;;;;7.15;3.10;;;19.70;77.30;;;;;;5031542;28;20383;-69
2023/09/21 09:14:52;;;;;;;7.38;3.17;;;19.80;77.40;;;;;;5032212;28;20052;-70
2023/09/21 09:17:18;;;;;;;6.82;2.70;;;19.70;77.40;;;;;;5036292;28;20053;-70
2023/09/21 09:19:46;;;;;;;7.47;3.13;;;19.70;77.70;;;;;;5038550;28;20028;-69
2023/09/21 09:22:16;;;;;;;5.85;2.83;;;19.70;78.00;;;;;;5034499;28;20036;-70
2023/09/21 09:24:45;;;;;;;7.60;3.60;;;19.70;78.00;;;;;;5035375;28;20437;-70
2023/09/21 09:27:13;;;;;;;7.75;2.92;;;19.70;78.10;;;;;;5034337;28;20453;-70
2023/09/21 09:29:52;;;;;;;7.20;3.03;;;19.70;78.20;;;;;;5041303;28;20086;-70
2023/09/21 09:32:18;;;;;;;8.52;3.33;;;19.70;78.30;;;;;;5037304;28;20030;-72
2023/09/21 09:34:49;;;;;;;6.15;2.75;;;19.70;78.40;;;;;;5013604;28;20053;-69
2023/09/21 09:37:16;;;;;;;10.07;3.30;;;19.70;78.50;;;;;;5036967;28;20063;-70
2023/09/21 09:39:51;;;;;;;6.90;3.03;;;19.70;78.60;;;;;;5051076;28;20040;-70
2023/09/21 09:42:18;;;;;;;8.63;3.45;;;19.80;78.80;;;;;;5030177;28;20100;-70
2023/09/21 09:44:46;;;;;;;7.07;3.20;;;19.70;78.90;;;;;;5044518;28;20099;-70
2023/09/21 09:47:16;;;;;;;7.38;3.30;;;19.70;79.10;;;;;;5045012;28;20086;-70
2023/09/21 09:49:49;;;;;;;6.50;3.25;;;19.70;79.20;;;;;;5039615;28;20041;-70
2023/09/21 09:52:18;;;;;;;6.55;2.95;;;19.70;79.20;;;;;;5043814;28;20026;-70
2023/09/21 09:54:48;;;;;;;7.65;3.00;;;19.80;79.20;;;;;;5040613;28;20381;-70
2023/09/21 09:57:16;;;;;;;6.72;2.53;;;19.70;79.10;;;;;;5050903;28;20037;-70
2023/09/21 09:59:42;;;;;;;5.15;2.63;;;19.70;79.10;;;;;;5041700;28;20033;-71
2023/09/21 10:02:17;;;;;;;5.65;2.40;;;19.70;79.00;;;;;;5041180;28;20091;-70
2023/09/21 10:04:46;;;;;;;6.32;2.28;;;19.70;79.10;;;;;;5043736;28;20039;-70
2023/09/21 10:07:16;;;;;;;5.03;2.20;;;19.70;79.10;;;;;;5017315;28;20060;-70
2023/09/21 10:09:46;;;;;;;6.50;2.20;;;19.70;79.10;;;;;;5044584;28;20045;-70
2023/09/21 10:12:13;;;;;;;5.13;2.15;;;19.70;79.10;;;;;;5045481;28;20116;-70
2023/09/21 10:14:43;;;;;;;5.10;2.22;;;19.70;79.10;;;;;;5041468;28;20037;-70
2023/09/21 10:17:10;;;;;;;6.18;2.75;;;19.70;79.10;;;;;;5025406;28;20104;-69
2023/09/21 10:19:38;;;;;;;5.10;2.38;;;19.70;79.00;;;;;;5034562;28;20497;-69
2023/09/21 10:22:30;;;;;;;6.45;2.20;;;19.70;79.10;;;;;;5031731;28;20073;-69
2023/09/21 10:24:58;;;;;;;5.88;2.30;;;19.70;79.10;;;;;;5030683;28;20147;-69
2023/09/21 10:27:33;;;;;;;6.63;2.50;;;19.70;79.10;;;;;;5026807;28;20069;-69
2023/09/21 10:30:09;;;;;;;5.30;2.20;;;19.60;79.10;;;;;;5029757;28;20327;-70
2023/09/21 10:32:51;;;;;;;6.80;2.55;;;19.60;79.20;;;;;;5030381;28;20401;-70
2023/09/21 10:35:42;;;;;;;6.18;2.60;;;19.60;79.30;;;;;;5030376;28;20054;-71
2023/09/21 10:38:12;;;;;;;4.90;2.03;;;19.60;79.40;;;;;;5032408;28;20022;-71
2023/09/21 10:40:38;;;;;;;5.15;2.42;;;19.70;79.40;;;;;;5030793;28;20438;-72
2023/09/21 10:43:38;;;;;;;5.68;2.40;;;19.60;79.40;;;;;;5031053;28;20037;-71
2023/09/21 10:46:34;;;;;;;5.25;2.25;;;19.60;79.30;;;;;;5029919;28;20120;-69
2023/09/21 10:49:09;;;;;;;4.82;1.92;;;19.70;79.30;;;;;;5025154;28;20042;-71
2023/09/21 10:51:39;;;;;;;6.18;2.22;;;19.70;79.20;;;;;;5028278;28;20092;-71
2023/09/21 10:54:06;;;;;;;5.78;2.20;;;19.70;79.10;;;;;;5031004;28;20029;-70
2023/09/21 10:56:33;;;;;;;4.88;2.10;;;19.80;79.00;;;;;;5029124;28;20033;-70
2023/09/21 10:59:00;;;;;;;4.22;1.80;;;19.80;78.90;;;;;;5040861;28;20505;-70
2023/09/21 11:01:27;;;;;;;5.00;2.25;;;19.90;78.80;;;;;;5042308;28;20040;-70
2023/09/21 11:03:53;;;;;;;8.00;2.88;;;19.90;78.70;;;;;;5041702;28;20025;-70
2023/09/21 11:06:20;;;;;;;6.38;2.47;;;20.00;78.60;;;;;;5038878;28;20060;-70
2023/09/21 11:08:47;;;;;;;6.53;2.20;;;20.10;78.60;;;;;;5035968;28;20072;-69
2023/09/21 11:11:13;;;;;;;5.53;2.38;;;20.10;78.60;;;;;;5018775;28;20035;-69
2023/09/21 11:13:40;;;;;;;8.65;3.38;;;20.10;78.60;;;;;;5036139;28;20021;-69
2023/09/21 11:16:06;;;;;;;7.57;2.80;;;20.10;78.60;;;;;;5034155;28;20057;-69
2023/09/21 11:18:32;;;;;;;7.20;3.20;;;20.10;78.60;;;;;;5035017;28;20029;-69
2023/09/21 11:20:59;;;;;;;6.40;2.72;;;20.10;78.50;;;;;;5035665;28;20083;-69
2023/09/21 11:23:24;;;;;;;8.25;3.55;;;20.20;78.50;;;;;;5034785;28;20040;-70
2023/09/21 11:25:50;;;;;;;6.60;3.10;;;20.20;78.40;;;;;;5035836;28;20025;-69
2023/09/21 11:28:20;;;;;;;6.78;3.38;;;20.20;78.50;;;;;;5035810;28;20057;-69
2023/09/21 11:30:47;;;;;;;6.70;3.30;;;20.20;78.70;;;;;;5034866;28;20113;-69
2023/09/21 11:33:13;;;;;;;9.50;3.65;;;20.20;78.60;;;;;;5035747;28;20083;-69
2023/09/21 11:35:39;;;;;;;9.30;3.67;;;20.20;78.60;;;;;;5034785;28;20033;-69
2023/09/21 11:38:05;;;;;;;6.75;3.33;;;20.20;79.30;;;;;;5033848;28;20017;-69
2023/09/21 11:40:31;;;;;;;8.40;3.65;;;20.30;78.70;;;;;;5034152;28;20061;-69
2023/09/21 11:42:59;;;;;;;7.22;3.80;;;20.30;78.70;;;;;;5034499;28;20017;-69
2023/09/21 11:45:26;;;;;;;7.25;3.88;;;20.30;78.80;;;;;;5035265;28;20094;-69
2023/09/21 11:47:57;;;;;;;7.00;3.40;;;20.30;78.80;;;;;;5034585;28;20514;-70
2023/09/21 11:50:34;;;;;;;8.23;2.80;;;20.30;79.00;;;;;;5035376;28;20072;-70
2023/09/21 11:53:04;;;;;;;5.45;2.20;;;20.20;78.90;;;;;;5035175;28;20426;-70
2023/09/21 11:55:30;;;;;;;5.10;1.77;;;20.10;78.80;;;;;;5035441;28;20439;-70
2023/09/21 11:58:13;;;;;;;4.72;1.95;;;20.10;78.90;;;;;;5030783;28;20022;-70
2023/09/21 12:00:44;;;;;;;4.93;1.92;;;20.00;78.90;;;;;;5032519;28;20056;-70
2023/09/21 12:03:21;;;;;;;5.00;1.90;;;19.90;78.90;;;;;;5033478;28;20025;-69
2023/09/21 12:05:47;;;;;;;4.72;1.73;;;19.90;79.10;;;;;;5027992;28;20036;-69
2023/09/21 12:08:14;;;;;;;5.05;2.00;;;19.80;79.20;;;;;;5034148;28;20108;-68
2023/09/21 12:10:41;;;;;;;5.60;2.00;;;19.80;79.40;;;;;;5033771;28;20055;-69
2023/09/21 12:13:10;;;;;;;6.78;2.10;;;19.70;80.10;;;;;;5046230;28;20029;-69
2023/09/21 12:15:37;;;;;;;3.63;1.80;;;19.70;79.50;;;;;;5032746;28;20434;-69
2023/09/21 12:18:04;;;;;;;4.65;2.10;;;19.70;79.60;;;;;;5032344;28;20112;-68
2023/09/21 12:20:31;;;;;;;5.00;1.90;;;19.60;79.60;;;;;;5031262;28;20035;-68
2023/09/21 12:22:57;;;;;;;5.38;1.92;;;19.50;79.50;;;;;;5029405;28;20033;-68
2023/09/21 12:25:24;;;;;;;3.78;1.73;;;19.40;79.50;;;;;;5033750;28;20028;-68
2023/09/21 12:27:50;;;;;;;3.63;1.40;;;19.40;79.50;;;;;;5038117;28;20040;-69
2023/09/21 12:30:17;;;;;;;3.50;1.35;;;19.50;79.50;;;;;;5032818;28;20496;-68
2023/09/21 12:32:43;;;;;;;2.92;1.38;;;19.40;79.30;;;;;;5035076;28;20079;-68
2023/09/21 12:35:11;;;;;;;3.85;1.75;;;19.30;79.30;;;;;;5037540;28;20048;-68
2023/09/21 12:37:39;;;;;;;4.13;1.48;;;19.30;79.50;;;;;;5032934;28;20087;-68
2023/09/21 12:40:11;;;;;;;4.57;1.50;;;19.20;79.50;;;;;;5038604;28;20087;-68
2023/09/21 12:42:39;;;;;;;3.63;1.33;;;19.10;79.50;;;;;;5049412;28;20059;-68
2023/09/21 12:45:07;;;;;;;4.80;1.38;;;19.10;79.50;;;;;;5036236;28;20163;-69
2023/09/21 12:47:33;;;;;;;2.05;1.05;;;19.10;79.30;;;;;;5037382;28;20108;-68
2023/09/21 12:50:00;;;;;;;2.67;1.23;;;19.10;79.30;;;;;;5036645;28;20087;-69
2023/09/21 12:52:29;;;;;;;3.03;1.27;;;19.00;79.20;;;;;;5034542;28;20033;-68
2023/09/21 12:54:55;;;;;;;3.30;1.25;;;19.00;79.30;;;;;;5030745;28;20035;-68
2023/09/21 12:57:22;;;;;;;2.70;1.23;;;19.00;79.20;;;;;;5035354;28;20028;-69